createdAt,value
2023-11-04T00:01:23.846Z,0.85
2023-11-04T00:03:52.010Z,0.55
2023-11-04T00:06:19.968Z,0.60
2023-11-04T00:08:46.940Z,0.50
2023-11-04T00:11:13.764Z,0.50
2023-11-04T00:13:40.530Z,0.50
2023-11-04T00:16:10.789Z,0.55
2023-11-04T00:18:38.372Z,0.55
2023-11-04T00:21:09.103Z,0.52
2023-11-04T00:23:36.036Z,0.55
2023-11-04T00:26:03.410Z,0.90
2023-11-04T00:28:32.212Z,0.40
2023-11-04T00:30:59.206Z,0.63
2023-11-04T00:33:26.470Z,0.50
2023-11-04T00:35:53.231Z,0.50
2023-11-04T00:38:20.560Z,0.52
2023-11-04T00:40:47.330Z,0.93
2023-11-04T00:43:14.114Z,1.02
2023-11-04T00:45:41.486Z,0.98
2023-11-04T00:48:08.256Z,0.73
2023-11-04T00:50:34.952Z,0.65
2023-11-04T00:53:01.692Z,0.60
2023-11-04T00:55:28.630Z,0.70
2023-11-04T00:57:56.738Z,0.93
2023-11-04T01:00:27.380Z,0.38
2023-11-04T01:02:56.849Z,0.70
2023-11-04T01:05:24.562Z,0.45
2023-11-04T01:07:51.442Z,0.40
2023-11-04T01:10:18.186Z,1.02
2023-11-04T01:12:45.320Z,0.50
2023-11-04T01:15:12.379Z,0.70
2023-11-04T01:17:39.425Z,0.82
2023-11-04T01:20:08.589Z,0.47
2023-11-04T01:22:38.340Z,0.60
2023-11-04T01:25:06.271Z,0.50
2023-11-04T01:27:33.220Z,0.35
2023-11-04T01:29:59.953Z,0.45
2023-11-04T01:32:26.791Z,0.60
2023-11-04T01:34:53.570Z,0.50
2023-11-04T01:37:20.572Z,0.60
2023-11-04T01:39:48.035Z,0.60
2023-11-04T01:42:14.851Z,0.70
2023-11-04T01:44:41.509Z,0.47
2023-11-04T01:47:08.544Z,0.40
2023-11-04T01:49:35.518Z,0.73
2023-11-04T01:52:04.418Z,0.60
2023-11-04T01:54:32.484Z,0.30
2023-11-04T01:57:00.313Z,1.00
2023-11-04T01:59:28.501Z,0.55
2023-11-04T02:01:55.553Z,0.52
2023-11-04T02:04:22.316Z,0.50
2023-11-04T02:06:49.478Z,0.52
2023-11-04T02:09:16.759Z,0.40
2023-11-04T02:11:43.769Z,0.50
2023-11-04T02:14:12.066Z,0.55
2023-11-04T02:16:39.100Z,0.50
2023-11-04T02:19:06.397Z,0.40
2023-11-04T02:21:33.680Z,0.52
2023-11-04T02:24:00.596Z,0.40
2023-11-04T02:26:28.244Z,0.47
2023-11-04T02:28:54.977Z,0.50
2023-11-04T02:31:21.781Z,0.60
2023-11-04T02:33:48.996Z,0.40
2023-11-04T02:36:15.834Z,0.50
2023-11-04T02:38:42.604Z,0.50
2023-11-04T02:41:09.424Z,0.80
2023-11-04T02:43:36.348Z,0.70
2023-11-04T02:46:03.320Z,0.50
2023-11-04T02:48:30.329Z,0.50
2023-11-04T02:50:57.116Z,0.60
2023-11-04T02:53:24.119Z,0.35
2023-11-04T02:55:50.853Z,0.32
2023-11-04T02:58:17.613Z,0.50
2023-11-04T03:00:44.357Z,0.40
2023-11-04T03:03:11.210Z,0.40
2023-11-04T03:05:38.582Z,0.77
2023-11-04T03:08:05.536Z,0.50
2023-11-04T03:10:33.649Z,0.50
2023-11-04T03:13:00.430Z,0.70
2023-11-04T03:15:27.659Z,0.50
2023-11-04T03:17:54.425Z,0.30
2023-11-04T03:20:21.408Z,0.30
2023-11-04T03:22:48.182Z,0.60
2023-11-04T03:25:16.597Z,0.68
2023-11-04T03:27:43.583Z,0.50
2023-11-04T03:30:11.346Z,0.50
2023-11-04T03:32:38.477Z,0.50
2023-11-04T03:35:05.792Z,0.75
2023-11-04T03:37:32.647Z,0.90
2023-11-04T03:39:59.612Z,0.50
2023-11-04T03:42:26.467Z,1.30
2023-11-04T03:44:53.288Z,0.50
2023-11-04T03:47:19.973Z,0.50
2023-11-04T03:49:46.727Z,0.73
2023-11-04T03:52:13.463Z,0.40
2023-11-04T03:54:41.018Z,0.50
2023-11-04T03:57:07.952Z,0.50
2023-11-04T03:59:34.774Z,0.35
2023-11-04T04:02:01.491Z,0.40
2023-11-04T04:04:28.661Z,0.45
2023-11-04T04:06:55.478Z,1.08
2023-11-04T04:09:22.273Z,0.30
2023-11-04T04:11:48.950Z,0.30
2023-11-04T04:14:15.861Z,1.23
2023-11-04T04:16:42.983Z,0.55
2023-11-04T04:19:09.816Z,0.60
2023-11-04T04:21:39.736Z,0.60
2023-11-04T04:24:06.877Z,0.60
2023-11-04T04:26:33.632Z,0.85
2023-11-04T04:29:00.372Z,1.08
2023-11-04T04:31:28.930Z,0.77
2023-11-04T04:33:56.610Z,0.77
2023-11-04T04:36:24.288Z,0.70
2023-11-04T04:38:52.407Z,0.40
2023-11-04T04:41:19.437Z,0.70
2023-11-04T04:43:46.546Z,2.10
2023-11-04T04:46:13.303Z,1.50
2023-11-04T04:48:40.738Z,0.90
2023-11-04T04:51:08.244Z,0.90
2023-11-04T04:53:37.301Z,1.67
2023-11-04T04:56:04.481Z,1.13
2023-11-04T04:58:31.317Z,0.50
2023-11-04T05:00:58.043Z,0.40
2023-11-04T05:03:25.016Z,0.50
2023-11-04T05:05:51.790Z,0.43
2023-11-04T05:08:18.705Z,0.50
2023-11-04T05:10:45.380Z,0.55
2023-11-04T05:13:12.174Z,0.65
2023-11-04T05:15:38.841Z,0.65
2023-11-04T05:18:05.747Z,0.95
2023-11-04T05:20:32.619Z,0.70
2023-11-04T05:22:59.498Z,0.50
2023-11-04T05:25:26.263Z,0.52
2023-11-04T05:27:53.404Z,0.60
2023-11-04T05:30:20.435Z,0.47
2023-11-04T05:32:47.472Z,0.45
2023-11-04T05:35:14.260Z,0.77
2023-11-04T05:37:40.923Z,0.80
2023-11-04T05:40:08.411Z,0.47
2023-11-04T05:42:35.614Z,0.60
2023-11-04T05:45:02.454Z,0.68
2023-11-04T05:47:29.399Z,0.68
2023-11-04T05:49:57.117Z,0.60
2023-11-04T05:52:23.831Z,0.40
2023-11-04T05:54:52.728Z,0.68
2023-11-04T05:57:27.118Z,0.63
2023-11-04T05:59:53.903Z,0.63
2023-11-04T06:02:20.574Z,0.80
2023-11-04T06:04:47.408Z,1.00
2023-11-04T06:07:14.280Z,0.70
2023-11-04T06:09:41.305Z,0.90
2023-11-04T06:12:08.891Z,1.20
2023-11-04T06:14:35.639Z,1.50
2023-11-04T06:17:03.659Z,0.70
2023-11-04T06:19:30.537Z,0.30
2023-11-04T06:21:57.320Z,0.93
2023-11-04T06:24:24.394Z,0.52
2023-11-04T06:26:51.171Z,0.77
2023-11-04T06:29:18.056Z,0.80
2023-11-04T06:31:44.778Z,0.68
2023-11-04T06:34:12.584Z,0.70
2023-11-04T06:36:39.578Z,3.63
2023-11-04T06:39:07.000Z,1.60
2023-11-04T06:41:34.740Z,0.57
2023-11-04T06:44:01.659Z,0.45
2023-11-04T06:46:28.380Z,0.57
2023-11-04T06:48:55.331Z,0.70
2023-11-04T06:51:23.144Z,0.60
2023-11-04T06:53:51.785Z,0.75
2023-11-04T06:56:18.684Z,0.90
2023-11-04T06:58:45.449Z,0.52
2023-11-04T07:01:18.598Z,0.50
2023-11-04T07:03:48.709Z,0.50
2023-11-04T07:06:15.864Z,0.55
2023-11-04T07:08:44.140Z,0.40
2023-11-04T07:11:15.787Z,0.63
2023-11-04T07:13:43.179Z,0.50
2023-11-04T07:16:10.913Z,1.15
2023-11-04T07:18:39.060Z,0.50
2023-11-04T07:21:06.365Z,0.50
2023-11-04T07:23:33.440Z,0.57
2023-11-04T07:26:00.868Z,0.68
2023-11-04T07:28:35.544Z,0.60
2023-11-04T07:31:06.234Z,0.87
2023-11-04T07:33:33.694Z,1.10
2023-11-04T07:36:00.593Z,0.75
2023-11-04T07:38:27.373Z,0.90
2023-11-04T07:40:54.065Z,0.65
2023-11-04T07:43:20.830Z,0.75
2023-11-04T07:45:47.919Z,0.80
2023-11-04T07:48:15.591Z,0.85
2023-11-04T07:50:42.870Z,3.22
2023-11-04T07:53:10.225Z,7.55
2023-11-04T07:55:37.127Z,9.90
2023-11-04T07:58:04.695Z,7.82
2023-11-04T08:00:31.795Z,5.13
2023-11-04T08:03:02.439Z,5.47
2023-11-04T08:05:30.208Z,3.63
2023-11-04T08:07:56.992Z,3.35
2023-11-04T08:10:24.623Z,3.10
2023-11-04T08:12:51.274Z,3.17
2023-11-04T08:15:18.049Z,2.35
2023-11-04T08:17:44.795Z,1.88
2023-11-04T08:20:12.742Z,2.22
2023-11-04T08:22:42.820Z,1.58
2023-11-04T08:25:10.814Z,1.63
2023-11-04T08:27:40.226Z,0.80
2023-11-04T08:30:08.557Z,1.02
2023-11-04T08:32:35.664Z,1.23
2023-11-04T08:35:02.545Z,1.10
2023-11-04T08:37:29.253Z,0.90
2023-11-04T08:39:56.660Z,0.70
2023-11-04T08:42:24.406Z,0.60
2023-11-04T08:44:51.248Z,0.77
2023-11-04T08:47:18.217Z,0.60
2023-11-04T08:49:48.805Z,0.70
2023-11-04T08:52:15.662Z,0.70
2023-11-04T08:54:42.522Z,0.90
2023-11-04T08:57:09.559Z,1.00
2023-11-04T08:59:36.632Z,0.85
2023-11-04T09:02:03.881Z,0.90
2023-11-04T09:04:30.795Z,0.80
2023-11-04T09:06:57.965Z,0.70
2023-11-04T09:09:25.078Z,0.80
2023-11-04T09:11:53.225Z,0.82
2023-11-04T09:14:19.971Z,0.90
2023-11-04T09:16:47.371Z,0.70
2023-11-04T09:19:14.492Z,0.98
2023-11-04T09:21:41.345Z,1.13
2023-11-04T09:24:08.320Z,1.30
2023-11-04T09:26:35.227Z,0.98
2023-11-04T09:29:03.308Z,1.70
2023-11-04T09:31:30.420Z,1.42
2023-11-04T09:33:57.366Z,1.48
2023-11-04T09:36:24.218Z,0.90
2023-11-04T09:38:50.928Z,1.27
2023-11-04T09:41:17.670Z,0.70
2023-11-04T09:43:44.575Z,0.60
2023-11-04T09:46:11.801Z,0.75
2023-11-04T09:48:39.939Z,0.60
2023-11-04T09:51:15.280Z,0.70
2023-11-04T09:53:56.966Z,1.20
2023-11-04T09:56:23.981Z,1.58
2023-11-04T09:58:51.994Z,1.95
2023-11-04T10:01:21.900Z,1.38
2023-11-04T10:03:49.683Z,1.15
2023-11-04T10:06:17.479Z,1.25
2023-11-04T10:08:45.423Z,1.27
2023-11-04T10:11:12.338Z,0.90
2023-11-04T10:13:40.426Z,1.08
2023-11-04T10:16:07.655Z,1.10
2023-11-04T10:18:34.768Z,0.80
2023-11-04T10:21:02.007Z,1.15
2023-11-04T10:23:28.942Z,1.00
2023-11-04T10:25:59.743Z,1.05
2023-11-04T10:28:26.724Z,0.98
2023-11-04T10:31:02.105Z,1.02
2023-11-04T10:33:32.592Z,1.15
2023-11-04T10:36:00.532Z,1.05
2023-11-04T10:38:27.768Z,1.10
2023-11-04T10:40:55.282Z,1.00
2023-11-04T10:43:26.335Z,0.80
2023-11-04T10:46:04.004Z,0.82
2023-11-04T10:48:39.750Z,0.80
2023-11-04T10:51:29.865Z,0.73
2023-11-04T10:54:17.031Z,0.75
2023-11-04T10:56:45.653Z,1.40
2023-11-04T10:59:31.551Z,0.90
2023-11-04T11:01:59.144Z,0.93
2023-11-04T11:04:26.938Z,1.00
2023-11-04T11:06:55.367Z,1.38
2023-11-04T11:09:23.095Z,1.05
2023-11-04T11:12:17.009Z,1.50
2023-11-04T11:14:44.228Z,1.20
2023-11-04T11:17:12.239Z,0.90
2023-11-04T11:19:52.850Z,1.27
2023-11-04T11:22:27.191Z,1.17
2023-11-04T11:24:57.511Z,1.05
2023-11-04T11:27:26.028Z,0.90
2023-11-04T11:29:54.532Z,1.70
2023-11-04T11:32:22.321Z,1.00
2023-11-04T11:34:56.342Z,1.13
2023-11-04T11:37:25.337Z,1.92
2023-11-04T11:39:53.159Z,3.50
2023-11-04T11:42:26.891Z,10.48
2023-11-04T11:44:56.033Z,9.75
2023-11-04T11:47:22.774Z,4.28
2023-11-04T11:49:50.109Z,1.20
2023-11-04T11:52:16.970Z,0.80
2023-11-04T11:54:44.234Z,0.80
2023-11-04T11:57:13.117Z,0.45
2023-11-04T11:59:40.056Z,0.65
2023-11-04T12:02:09.206Z,0.65
2023-11-04T12:04:36.482Z,0.77
2023-11-04T12:07:03.804Z,0.85
2023-11-04T12:09:31.453Z,0.90
2023-11-04T12:11:58.694Z,0.52
2023-11-04T12:14:25.709Z,0.50
2023-11-04T12:16:54.138Z,0.60
2023-11-04T12:19:22.857Z,0.50
2023-11-04T12:21:50.612Z,0.60
2023-11-04T12:24:17.863Z,0.70
2023-11-04T12:26:45.646Z,0.60
2023-11-04T12:29:12.305Z,0.47
2023-11-04T12:31:40.617Z,0.65
2023-11-04T12:34:08.373Z,0.60
2023-11-04T12:36:35.660Z,0.70
2023-11-04T12:39:03.517Z,0.90
2023-11-04T12:41:31.194Z,0.95
2023-11-04T12:44:02.338Z,1.00
2023-11-04T12:46:30.588Z,1.02
2023-11-04T12:48:58.338Z,1.10
2023-11-04T12:51:26.156Z,1.20
2023-11-04T12:53:53.721Z,1.10
2023-11-04T12:56:20.828Z,1.30
2023-11-04T12:58:47.652Z,0.80
2023-11-04T13:01:14.606Z,0.80
2023-11-04T13:03:41.591Z,1.10
2023-11-04T13:06:08.788Z,0.90
2023-11-04T13:08:35.540Z,0.95
2023-11-04T13:11:02.518Z,1.45
2023-11-04T13:13:29.243Z,0.70
2023-11-04T13:15:56.103Z,1.50
2023-11-04T13:18:23.515Z,2.17
2023-11-04T13:20:50.377Z,3.40
2023-11-04T13:23:19.186Z,2.22
2023-11-04T13:25:46.529Z,1.38
2023-11-04T13:28:13.435Z,1.55
2023-11-04T13:30:40.247Z,2.45
2023-11-04T13:33:09.028Z,1.42
2023-11-04T13:35:36.152Z,1.83
2023-11-04T13:38:03.167Z,1.17
2023-11-04T13:40:30.220Z,3.45
2023-11-04T13:42:56.934Z,2.97
2023-11-04T13:45:24.380Z,5.00
2023-11-04T13:47:51.970Z,2.67
2023-11-04T13:50:24.002Z,2.53
2023-11-04T13:52:50.846Z,1.85
2023-11-04T13:55:18.088Z,1.73
2023-11-04T13:57:45.482Z,1.40
2023-11-04T14:00:13.511Z,1.50
2023-11-04T14:02:41.383Z,1.88
2023-11-04T14:05:08.469Z,1.60
2023-11-04T14:07:35.800Z,2.88
2023-11-04T14:10:03.967Z,3.30
2023-11-04T14:12:30.990Z,2.80
2023-11-04T14:14:57.727Z,2.88
2023-11-04T14:17:24.619Z,2.22
2023-11-04T14:19:52.953Z,2.20
2023-11-04T14:22:19.751Z,1.60
2023-11-04T14:24:47.532Z,2.22
2023-11-04T14:27:15.712Z,1.83
2023-11-04T14:29:42.988Z,5.28
2023-11-04T14:32:10.243Z,3.63
2023-11-04T14:34:37.966Z,2.05
2023-11-04T14:37:05.634Z,1.92
2023-11-04T14:39:33.190Z,2.58
2023-11-04T14:42:00.000Z,2.85
2023-11-04T14:44:29.060Z,2.78
2023-11-04T14:46:56.785Z,1.98
2023-11-04T14:49:26.104Z,2.38
2023-11-04T14:51:52.788Z,2.58
2023-11-04T14:54:19.572Z,2.85
2023-11-04T14:56:46.401Z,2.50
2023-11-04T14:59:13.125Z,2.15
2023-11-04T15:01:48.234Z,4.28
2023-11-04T15:04:19.626Z,2.97
2023-11-04T15:06:49.281Z,1.85
2023-11-04T15:09:16.255Z,1.00
2023-11-04T15:11:43.134Z,5.72
2023-11-04T15:14:11.397Z,4.65
2023-11-04T15:16:39.160Z,3.80
2023-11-04T15:19:06.533Z,9.68
2023-11-04T15:21:33.602Z,13.40
2023-11-04T15:24:00.342Z,8.38
2023-11-04T15:26:27.100Z,14.55
2023-11-04T15:28:53.801Z,4.88
2023-11-04T15:31:20.665Z,4.40
2023-11-04T15:33:47.440Z,3.38
2023-11-04T15:36:14.276Z,2.80
2023-11-04T15:38:41.605Z,2.22
2023-11-04T15:41:10.044Z,1.90
2023-11-04T15:43:36.754Z,3.00
2023-11-04T15:46:04.810Z,4.47
2023-11-04T15:48:32.145Z,4.38
2023-11-04T15:50:59.549Z,6.00
2023-11-04T15:53:26.441Z,4.90
2023-11-04T15:55:57.471Z,4.28
2023-11-04T15:58:28.151Z,3.33
2023-11-04T16:00:56.721Z,4.53
2023-11-04T16:03:23.423Z,4.57
2023-11-04T16:05:50.182Z,5.60
2023-11-04T16:08:16.889Z,10.45
2023-11-04T16:10:43.544Z,6.63
2023-11-04T16:13:10.819Z,5.05
2023-11-04T16:15:37.791Z,4.07
2023-11-04T16:18:04.909Z,3.53
2023-11-04T16:20:31.632Z,3.03
2023-11-04T16:22:58.397Z,2.80
2023-11-04T16:25:25.315Z,3.97
2023-11-04T16:27:52.088Z,2.90
2023-11-04T16:30:19.635Z,2.92
2023-11-04T16:32:47.056Z,2.80
2023-11-04T16:35:14.238Z,3.85
2023-11-04T16:37:40.891Z,3.47
2023-11-04T16:40:09.976Z,3.45
2023-11-04T16:42:36.858Z,2.85
2023-11-04T16:45:03.657Z,3.35
2023-11-04T16:47:30.356Z,3.40
2023-11-04T16:49:57.310Z,3.50
2023-11-04T16:52:24.046Z,3.92
2023-11-04T16:54:50.827Z,3.72
2023-11-04T16:57:18.134Z,3.75
2023-11-04T16:59:45.182Z,4.97
2023-11-04T17:02:11.891Z,3.53
2023-11-04T17:04:39.036Z,3.38
2023-11-04T17:07:07.066Z,3.70
2023-11-04T17:09:34.437Z,4.68
2023-11-04T17:12:01.392Z,4.82
2023-11-04T17:14:30.911Z,5.20
2023-11-04T17:16:59.172Z,3.90
2023-11-04T17:19:26.605Z,3.25
2023-11-04T17:21:54.407Z,5.20
2023-11-04T17:24:21.269Z,5.88
2023-11-04T17:26:48.126Z,5.00
2023-11-04T17:29:15.299Z,3.85
2023-11-04T17:31:42.193Z,3.85
2023-11-04T17:34:09.123Z,4.10
2023-11-04T17:36:35.844Z,3.17
2023-11-04T17:39:03.812Z,3.00
2023-11-04T17:41:30.680Z,2.88
2023-11-04T17:43:58.555Z,2.40
2023-11-04T17:46:25.392Z,2.85
2023-11-04T17:48:52.239Z,2.97
2023-11-04T17:51:25.236Z,2.70
2023-11-04T17:53:51.977Z,2.13
2023-11-04T17:56:18.665Z,2.42
2023-11-04T17:58:46.666Z,3.35
2023-11-04T18:01:13.428Z,3.67
2023-11-04T18:03:40.256Z,4.43
2023-11-04T18:06:07.235Z,4.97
2023-11-04T18:08:34.521Z,3.60
2023-11-04T18:11:01.566Z,3.92
2023-11-04T18:13:28.658Z,4.85
2023-11-04T18:15:56.198Z,4.18
2023-11-04T18:18:23.574Z,3.97
2023-11-04T18:20:50.373Z,5.40
2023-11-04T18:23:17.116Z,7.30
2023-11-04T18:25:43.718Z,6.50
2023-11-04T18:28:10.484Z,5.35
2023-11-04T18:30:37.208Z,6.07
2023-11-04T18:33:04.903Z,5.97
2023-11-04T18:35:33.365Z,7.13
2023-11-04T18:38:00.577Z,6.65
2023-11-04T18:40:27.521Z,5.25
2023-11-04T18:42:54.528Z,4.50
2023-11-04T18:45:21.320Z,5.18
2023-11-04T18:47:48.125Z,5.35
2023-11-04T18:50:14.914Z,5.47
2023-11-04T18:52:41.803Z,5.13
2023-11-04T18:55:08.775Z,5.05
2023-11-04T18:57:35.601Z,4.82
2023-11-04T19:00:02.417Z,4.97
2023-11-04T19:02:29.200Z,4.78
2023-11-04T19:04:56.070Z,5.05
2023-11-04T19:07:23.103Z,4.78
2023-11-04T19:09:49.897Z,6.55
2023-11-04T19:12:16.665Z,7.25
2023-11-04T19:14:43.565Z,6.28
2023-11-04T19:17:10.465Z,5.82
2023-11-04T19:19:37.186Z,5.22
2023-11-04T19:22:04.355Z,5.93
2023-11-04T19:24:31.409Z,6.45
2023-11-04T19:26:58.154Z,5.72
2023-11-04T19:29:25.028Z,5.68
2023-11-04T19:31:51.785Z,5.68
2023-11-04T19:34:18.475Z,5.55
2023-11-04T19:36:45.411Z,5.68
2023-11-04T19:39:12.055Z,4.95
2023-11-04T19:41:38.828Z,10.52
2023-11-04T19:44:05.922Z,7.50
2023-11-04T19:46:32.609Z,5.93
2023-11-04T19:48:59.366Z,5.72
2023-11-04T19:51:27.347Z,5.80
2023-11-04T19:53:54.221Z,6.45
2023-11-04T19:56:21.552Z,6.85
2023-11-04T19:58:48.195Z,5.80
2023-11-04T20:01:15.176Z,6.18
2023-11-04T20:03:42.129Z,5.78
2023-11-04T20:06:09.237Z,5.82
2023-11-04T20:08:40.236Z,4.93
2023-11-04T20:11:07.567Z,3.50
2023-11-04T20:13:34.450Z,2.88
2023-11-04T20:16:01.336Z,6.28
2023-11-04T20:18:28.208Z,13.07
2023-11-04T20:20:55.025Z,9.90
2023-11-04T20:23:21.709Z,6.57
2023-11-04T20:25:48.409Z,5.05
2023-11-04T20:28:18.543Z,4.25
2023-11-04T20:30:45.451Z,3.45
2023-11-04T20:33:12.213Z,3.13
2023-11-04T20:35:39.861Z,3.05
2023-11-04T20:38:06.590Z,2.90
2023-11-04T20:40:39.576Z,2.63
2023-11-04T20:43:06.964Z,2.42
2023-11-04T20:45:35.313Z,2.90
2023-11-04T20:48:02.554Z,3.13
2023-11-04T20:50:30.041Z,2.83
2023-11-04T20:52:57.340Z,3.58
2023-11-04T20:55:25.810Z,3.25
2023-11-04T20:57:53.891Z,3.33
2023-11-04T21:00:20.684Z,3.08
2023-11-04T21:02:47.550Z,3.30
2023-11-04T21:05:14.525Z,3.72
2023-11-04T21:07:41.297Z,4.03
2023-11-04T21:10:08.508Z,3.60
2023-11-04T21:12:36.018Z,3.55
2023-11-04T21:15:02.854Z,3.28
2023-11-04T21:17:30.133Z,3.22
2023-11-04T21:19:56.921Z,3.50
2023-11-04T21:22:23.751Z,3.08
2023-11-04T21:24:53.104Z,2.63
2023-11-04T21:27:20.100Z,3.28
2023-11-04T21:29:46.887Z,3.22
2023-11-04T21:32:13.670Z,3.30
2023-11-04T21:34:40.384Z,2.33
2023-11-04T21:37:07.213Z,2.35
2023-11-04T21:39:33.896Z,2.85
2023-11-04T21:42:00.678Z,2.58
2023-11-04T21:44:27.310Z,4.00
2023-11-04T21:46:54.246Z,3.45
2023-11-04T21:49:21.071Z,4.13
2023-11-04T21:51:47.908Z,3.13
2023-11-04T21:54:14.710Z,5.20
2023-11-04T21:56:43.867Z,3.30
2023-11-04T21:59:11.990Z,2.45
2023-11-04T22:01:38.750Z,2.38
2023-11-04T22:04:05.662Z,2.47
2023-11-04T22:06:32.543Z,3.20
2023-11-04T22:08:59.383Z,3.03
2023-11-04T22:11:27.621Z,3.70
2023-11-04T22:13:54.426Z,2.90
2023-11-04T22:16:21.205Z,2.72
2023-11-04T22:18:48.435Z,2.80
2023-11-04T22:21:18.847Z,3.08
2023-11-04T22:23:47.020Z,3.00
2023-11-04T22:26:14.034Z,2.25
2023-11-04T22:28:40.996Z,1.98
2023-11-04T22:31:09.108Z,1.80
2023-11-04T22:33:36.160Z,1.95
2023-11-04T22:36:02.887Z,1.20
2023-11-04T22:38:29.777Z,1.20
2023-11-04T22:40:56.488Z,1.08
2023-11-04T22:43:23.205Z,1.30
2023-11-04T22:45:50.641Z,1.02
2023-11-04T22:48:17.682Z,1.45
2023-11-04T22:50:44.651Z,1.05
2023-11-04T22:53:11.418Z,1.30
2023-11-04T22:55:38.970Z,1.33
2023-11-04T22:58:06.534Z,1.25
2023-11-04T23:00:39.849Z,1.02
2023-11-04T23:03:07.694Z,1.63
2023-11-04T23:05:34.824Z,1.30
2023-11-04T23:08:02.664Z,1.58
2023-11-04T23:10:29.910Z,1.50
2023-11-04T23:12:56.904Z,1.55
2023-11-04T23:15:26.156Z,2.30
2023-11-04T23:17:54.454Z,2.60
2023-11-04T23:20:23.374Z,1.20
2023-11-04T23:22:51.698Z,0.80
2023-11-04T23:25:21.588Z,1.00
2023-11-04T23:27:49.364Z,1.23
2023-11-04T23:30:16.363Z,0.77
2023-11-04T23:32:43.367Z,0.50
2023-11-04T23:35:10.225Z,0.60
2023-11-04T23:37:37.067Z,0.88
2023-11-04T23:40:06.418Z,0.80
2023-11-04T23:42:33.593Z,0.50
2023-11-04T23:45:00.386Z,0.80
2023-11-04T23:47:27.099Z,0.85
2023-11-04T23:49:53.985Z,0.63
2023-11-04T23:52:21.081Z,0.57
2023-11-04T23:54:47.802Z,0.80
2023-11-04T23:57:14.798Z,0.98
2023-11-04T23:59:42.166Z,0.82
